Time;durP1;ratioP1;P1;durP2;ratioP2;P2;SDS_P1;SDS_P2;PMS_P1;PMS_P2;Temp;Humidity;BMP_temperature;BMP_pressure;BME280_temperature;BME280_humidity;BME280_pressure;Samples;Min_cycle;Max_cycle;Signal;HPM_P1;HPM_P2
2021/10/03 00:02:29;;;;;;;0.88;0.88;;;15.40;99.90;;;;;;4415143;32;20082;-66
2021/10/03 00:04:55;;;;;;;0.82;0.82;;;15.40;99.90;;;;;;4401678;32;20065;-66
2021/10/03 00:07:22;;;;;;;1.12;0.90;;;15.40;99.90;;;;;;4400437;32;20455;-66
2021/10/03 00:09:50;;;;;;;0.62;0.57;;;15.40;99.90;;;;;;4400427;32;20180;-66
2021/10/03 00:12:17;;;;;;;0.47;0.47;;;15.40;99.90;;;;;;4413687;32;20424;-66
2021/10/03 00:14:43;;;;;;;4.30;0.98;;;15.50;99.90;;;;;;4413605;32;20169;-66
2021/10/03 00:17:08;;;;;;;2.55;1.15;;;15.50;99.90;;;;;;4401001;32;20511;-66
2021/10/03 00:19:35;;;;;;;1.65;0.73;;;15.40;99.90;;;;;;4401335;32;20123;-66
2021/10/03 00:22:01;;;;;;;2.62;1.20;;;15.40;99.90;;;;;;4414434;32;20169;-66
2021/10/03 00:24:26;;;;;;;0.50;0.50;;;15.40;99.90;;;;;;4414649;32;20074;-66
2021/10/03 00:26:52;;;;;;;2.90;1.15;;;15.50;99.90;;;;;;4413329;32;20082;-66
2021/10/03 00:29:18;;;;;;;0.70;0.70;;;15.50;99.90;;;;;;4412980;32;20070;-66
2021/10/03 00:31:44;;;;;;;0.75;0.60;;;15.40;99.90;;;;;;4400639;32;20072;-66
2021/10/03 00:34:09;;;;;;;2.12;0.80;;;15.40;99.90;;;;;;4413543;32;20517;-66
2021/10/03 00:36:35;;;;;;;2.92;1.52;;;15.50;99.90;;;;;;4414225;32;20061;-66
2021/10/03 00:39:00;;;;;;;0.55;0.55;;;15.40;99.90;;;;;;4413418;32;20082;-67
2021/10/03 00:41:26;;;;;;;0.60;0.60;;;15.40;99.90;;;;;;4413399;32;20133;-66
2021/10/03 00:43:52;;;;;;;2.78;1.42;;;15.40;99.90;;;;;;4413535;32;20109;-66
2021/10/03 00:46:19;;;;;;;2.60;1.50;;;15.50;99.90;;;;;;4399880;32;20077;-66
2021/10/03 00:48:44;;;;;;;2.15;0.75;;;15.50;99.90;;;;;;4399938;32;20075;-66
2021/10/03 00:51:10;;;;;;;3.97;0.80;;;15.50;99.90;;;;;;4414281;32;20069;-66
2021/10/03 00:53:36;;;;;;;0.55;0.55;;;15.60;99.90;;;;;;4414328;32;20062;-66
2021/10/03 00:56:01;;;;;;;2.45;0.90;;;15.60;99.90;;;;;;4412147;32;20082;-66
2021/10/03 00:58:27;;;;;;;0.90;0.85;;;15.60;99.90;;;;;;4413540;32;20081;-66
2021/10/03 01:00:52;;;;;;;0.82;0.82;;;15.60;99.90;;;;;;4400756;32;20522;-66
2021/10/03 01:03:18;;;;;;;2.60;0.70;;;15.50;99.90;;;;;;4412490;32;20573;-66
2021/10/03 01:05:44;;;;;;;0.70;0.70;;;15.40;99.90;;;;;;4413915;32;20492;-66
2021/10/03 01:08:10;;;;;;;1.05;0.75;;;15.50;99.90;;;;;;4414016;32;20507;-66
2021/10/03 01:10:35;;;;;;;3.72;1.08;;;15.40;99.90;;;;;;4400293;32;20120;-67
2021/10/03 01:13:05;;;;;;;1.50;0.95;;;15.40;99.90;;;;;;4399344;32;20078;-67
2021/10/03 01:15:33;;;;;;;0.88;0.60;;;15.40;99.90;;;;;;4413462;32;20057;-67
2021/10/03 01:17:59;;;;;;;2.15;0.82;;;15.40;99.90;;;;;;4400614;32;20467;-67
2021/10/03 01:20:25;;;;;;;3.83;0.93;;;15.40;99.90;;;;;;4414155;32;20112;-67
2021/10/03 01:22:52;;;;;;;1.62;0.82;;;15.40;99.90;;;;;;4413621;32;20559;-67
2021/10/03 01:25:20;;;;;;;10.40;1.20;;;15.40;99.90;;;;;;4414022;32;20065;-67
2021/10/03 01:27:46;;;;;;;0.47;0.47;;;15.40;99.90;;;;;;4413263;32;20130;-67
2021/10/03 01:30:16;;;;;;;1.75;1.12;;;15.40;99.90;;;;;;4412833;32;20084;-67
2021/10/03 01:32:43;;;;;;;1.08;0.80;;;15.40;99.90;;;;;;4412870;32;20189;-67
2021/10/03 01:35:10;;;;;;;3.80;1.73;;;15.30;99.90;;;;;;4386923;32;20173;-67
2021/10/03 01:37:36;;;;;;;1.27;0.62;;;15.40;99.90;;;;;;4413062;32;20065;-67
2021/10/03 01:40:06;;;;;;;2.83;1.15;;;15.40;99.90;;;;;;4399119;32;20066;-67
2021/10/03 01:42:31;;;;;;;1.02;0.57;;;15.40;99.90;;;;;;4413070;32;20090;-67
2021/10/03 01:44:57;;;;;;;1.77;1.17;;;15.40;99.90;;;;;;4413649;32;20373;-67
2021/10/03 01:47:22;;;;;;;1.20;0.88;;;15.30;99.90;;;;;;4399416;32;20065;-67
2021/10/03 01:49:49;;;;;;;0.55;0.55;;;15.30;99.90;;;;;;4413384;32;20448;-67
2021/10/03 01:52:15;;;;;;;2.65;0.80;;;15.30;99.90;;;;;;4413509;32;20133;-67
2021/10/03 01:54:41;;;;;;;3.70;0.90;;;15.30;99.90;;;;;;4399725;32;20065;-67
2021/10/03 01:57:06;;;;;;;2.65;1.20;;;15.30;99.90;;;;;;4412177;32;20353;-67
2021/10/03 01:59:32;;;;;;;5.60;1.75;;;15.20;99.90;;;;;;4411938;32;20078;-67
2021/10/03 02:01:58;;;;;;;2.20;1.08;;;15.30;99.90;;;;;;4411200;32;20085;-67
2021/10/03 02:04:25;;;;;;;1.60;0.90;;;15.30;99.90;;;;;;4399649;32;20081;-67
2021/10/03 02:06:52;;;;;;;0.60;0.60;;;15.30;99.90;;;;;;4412158;32;20069;-67
2021/10/03 02:09:22;;;;;;;0.73;0.73;;;15.30;99.90;;;;;;4413320;32;20081;-67
2021/10/03 02:11:50;;;;;;;2.20;0.80;;;15.30;99.90;;;;;;4413043;32;20103;-67
2021/10/03 02:14:17;;;;;;;0.60;0.60;;;15.40;99.90;;;;;;4412210;32;20120;-67
2021/10/03 02:16:43;;;;;;;3.65;1.90;;;15.30;99.90;;;;;;4413373;32;20065;-67
2021/10/03 02:19:09;;;;;;;0.77;0.77;;;15.30;99.90;;;;;;4412449;32;20078;-67
2021/10/03 02:21:35;;;;;;;6.07;2.62;;;15.40;99.90;;;;;;4412204;32;20065;-67
2021/10/03 02:24:01;;;;;;;0.95;0.90;;;15.30;99.90;;;;;;4412172;32;20507;-67
2021/10/03 02:26:27;;;;;;;1.12;0.82;;;15.20;99.90;;;;;;4412958;32;20090;-67
2021/10/03 02:28:53;;;;;;;1.80;1.05;;;15.30;99.90;;;;;;4398400;32;20105;-67
2021/10/03 02:31:19;;;;;;;1.55;1.23;;;15.20;99.90;;;;;;4410325;32;20241;-67
2021/10/03 02:33:47;;;;;;;0.55;0.55;;;15.20;99.90;;;;;;4411923;32;20181;-67
2021/10/03 02:36:14;;;;;;;1.23;1.12;;;15.20;99.90;;;;;;4411755;32;20066;-67
2021/10/03 02:38:40;;;;;;;2.00;0.90;;;15.20;99.90;;;;;;4410742;32;20069;-67
2021/10/03 02:41:08;;;;;;;2.90;1.48;;;15.10;99.90;;;;;;4399282;32;20113;-67
2021/10/03 02:43:36;;;;;;;0.90;0.90;;;15.10;99.90;;;;;;4411849;32;20066;-67
2021/10/03 02:46:02;;;;;;;0.98;0.60;;;15.10;99.90;;;;;;4410620;32;20065;-67
2021/10/03 02:48:31;;;;;;;0.60;0.60;;;15.10;99.90;;;;;;4411886;32;20082;-67
2021/10/03 02:50:57;;;;;;;2.55;0.77;;;15.10;99.90;;;;;;4412193;32;20087;-67
2021/10/03 02:53:24;;;;;;;1.55;0.82;;;15.00;99.90;;;;;;4411884;32;20070;-67
2021/10/03 02:55:51;;;;;;;1.23;0.55;;;15.00;99.90;;;;;;4412141;32;20078;-66
2021/10/03 02:58:17;;;;;;;1.45;1.12;;;15.00;99.90;;;;;;4398351;32;20097;-67
2021/10/03 03:00:44;;;;;;;1.10;1.00;;;14.90;99.90;;;;;;4413300;32;20506;-67
2021/10/03 03:03:10;;;;;;;1.23;0.95;;;15.00;99.90;;;;;;4398756;32;20065;-66
2021/10/03 03:05:35;;;;;;;0.70;0.70;;;15.00;99.90;;;;;;4411758;32;20125;-66
2021/10/03 03:08:02;;;;;;;0.85;0.85;;;15.00;99.90;;;;;;4411817;32;20065;-66
2021/10/03 03:10:29;;;;;;;2.90;1.52;;;15.10;99.90;;;;;;4411753;32;20077;-66
2021/10/03 03:12:54;;;;;;;1.52;0.88;;;15.00;99.90;;;;;;4398266;32;20057;-66
2021/10/03 03:15:20;;;;;;;0.90;0.40;;;15.00;99.90;;;;;;4412156;32;20148;-66
2021/10/03 03:17:45;;;;;;;0.70;0.70;;;15.10;99.90;;;;;;4412374;32;20440;-66
2021/10/03 03:20:11;;;;;;;1.33;0.90;;;15.00;99.90;;;;;;4412179;32;20205;-66
2021/10/03 03:22:37;;;;;;;0.50;0.50;;;15.10;99.90;;;;;;4411563;32;20514;-66
2021/10/03 03:25:07;;;;;;;1.25;0.70;;;15.10;99.90;;;;;;4398032;32;20562;-66
2021/10/03 03:27:32;;;;;;;0.80;0.80;;;15.10;99.90;;;;;;4412713;32;20077;-67
2021/10/03 03:29:58;;;;;;;0.50;0.50;;;15.00;99.90;;;;;;4415670;32;20057;-67
2021/10/03 03:32:23;;;;;;;0.90;0.90;;;15.10;99.90;;;;;;4413748;32;20150;-67
2021/10/03 03:34:49;;;;;;;1.95;0.90;;;15.10;99.90;;;;;;4400248;32;20467;-67
2021/10/03 03:37:14;;;;;;;2.78;1.48;;;15.10;99.90;;;;;;4415288;32;20166;-67
2021/10/03 03:39:40;;;;;;;0.50;0.50;;;15.10;99.90;;;;;;4413763;32;20054;-67
2021/10/03 03:42:06;;;;;;;2.03;0.98;;;15.10;99.90;;;;;;4401866;32;20057;-67
2021/10/03 03:44:32;;;;;;;0.50;0.50;;;15.00;99.90;;;;;;4415678;32;20071;-67
2021/10/03 03:46:58;;;;;;;0.55;0.55;;;15.00;99.90;;;;;;4414719;32;20241;-67
2021/10/03 03:49:23;;;;;;;1.17;1.08;;;15.00;99.90;;;;;;4415125;32;20069;-67
2021/10/03 03:51:49;;;;;;;2.25;1.37;;;15.10;99.90;;;;;;4414812;32;20263;-67
2021/10/03 03:54:14;;;;;;;0.55;0.55;;;15.10;99.90;;;;;;4400954;32;20062;-67
2021/10/03 03:56:40;;;;;;;0.62;0.62;;;15.10;99.90;;;;;;4413526;32;20132;-67
2021/10/03 03:59:05;;;;;;;0.68;0.68;;;15.00;99.90;;;;;;4414866;32;20061;-67
2021/10/03 04:01:31;;;;;;;0.88;0.82;;;14.90;99.90;;;;;;4414668;32;20077;-68
2021/10/03 04:03:56;;;;;;;0.50;0.50;;;14.90;99.90;;;;;;4414495;32;20061;-67
2021/10/03 04:06:22;;;;;;;0.88;0.60;;;15.00;99.90;;;;;;4414085;32;20165;-67
2021/10/03 04:08:47;;;;;;;0.80;0.60;;;15.00;99.90;;;;;;4414639;32;20070;-67
2021/10/03 04:11:13;;;;;;;0.40;0.40;;;15.00;99.90;;;;;;4414892;32;20420;-67
2021/10/03 04:13:40;;;;;;;1.02;0.95;;;15.00;99.90;;;;;;4414514;32;20128;-67
2021/10/03 04:16:05;;;;;;;0.68;0.68;;;15.00;99.90;;;;;;4414765;32;20069;-67
2021/10/03 04:18:31;;;;;;;0.80;0.62;;;14.90;99.90;;;;;;4400227;32;20507;-67
2021/10/03 04:20:56;;;;;;;1.23;0.50;;;15.00;99.90;;;;;;4414803;32;20456;-67
2021/10/03 04:23:22;;;;;;;1.65;0.93;;;15.00;99.90;;;;;;4414546;32;20070;-67
2021/10/03 04:25:47;;;;;;;13.27;1.17;;;14.90;99.90;;;;;;4414117;32;20539;-67
2021/10/03 04:28:13;;;;;;;1.15;0.95;;;14.80;99.90;;;;;;4413174;32;20185;-66
2021/10/03 04:30:38;;;;;;;0.75;0.70;;;14.70;99.90;;;;;;4414718;32;20089;-67
2021/10/03 04:33:04;;;;;;;1.87;0.98;;;14.70;99.90;;;;;;4413283;32;20449;-67
2021/10/03 04:35:29;;;;;;;1.50;0.80;;;14.70;99.90;;;;;;4414241;32;20073;-67
2021/10/03 04:37:55;;;;;;;0.65;0.65;;;14.70;99.90;;;;;;4414678;32;20078;-67
2021/10/03 04:40:20;;;;;;;0.98;0.75;;;14.70;99.90;;;;;;4412299;32;20092;-67
2021/10/03 04:42:47;;;;;;;0.40;0.40;;;14.70;99.90;;;;;;4414213;32;20506;-67
2021/10/03 04:45:14;;;;;;;3.05;1.02;;;14.60;99.90;;;;;;4414666;32;20062;-67
2021/10/03 04:47:39;;;;;;;0.40;0.40;;;14.50;99.90;;;;;;4413935;32;20396;-67
2021/10/03 04:50:05;;;;;;;0.50;0.50;;;14.60;99.90;;;;;;4414023;32;20188;-67
2021/10/03 04:52:31;;;;;;;1.52;1.30;;;14.50;99.90;;;;;;4413639;32;20065;-67
2021/10/03 04:54:56;;;;;;;10.52;1.58;;;14.50;99.90;;;;;;4414021;32;20082;-67
2021/10/03 04:57:22;;;;;;;0.40;0.40;;;14.50;99.90;;;;;;4413270;32;20062;-67
2021/10/03 04:59:47;;;;;;;11.77;1.62;;;14.50;99.90;;;;;;4414220;32;20081;-67
2021/10/03 05:02:13;;;;;;;0.52;0.52;;;14.50;99.90;;;;;;4414432;32;20065;-67
2021/10/03 05:04:39;;;;;;;0.45;0.45;;;14.50;99.90;;;;;;4413382;32;20086;-67
2021/10/03 05:07:05;;;;;;;2.75;0.62;;;14.60;99.90;;;;;;4413791;32;20503;-67
2021/10/03 05:09:31;;;;;;;1.62;1.33;;;14.60;99.90;;;;;;4413637;32;20088;-67
2021/10/03 05:11:56;;;;;;;1.98;1.30;;;14.60;99.90;;;;;;4414291;32;20409;-67
2021/10/03 05:14:22;;;;;;;0.60;0.60;;;14.70;99.90;;;;;;4400013;32;20074;-68
2021/10/03 05:16:48;;;;;;;1.02;0.70;;;14.70;99.90;;;;;;4413037;32;20527;-67
2021/10/03 05:19:13;;;;;;;1.65;0.60;;;14.70;99.90;;;;;;4413869;32;20132;-67
2021/10/03 05:21:39;;;;;;;0.52;0.52;;;14.70;99.90;;;;;;4413608;32;20062;-67
2021/10/03 05:24:05;;;;;;;3.47;0.70;;;14.70;99.90;;;;;;4413365;32;20086;-67
2021/10/03 05:26:31;;;;;;;0.62;0.62;;;14.60;99.90;;;;;;4399593;32;20062;-67
2021/10/03 05:28:56;;;;;;;1.23;0.93;;;14.60;99.90;;;;;;4412209;32;20090;-67
2021/10/03 05:31:23;;;;;;;15.13;0.90;;;14.60;99.90;;;;;;4399453;32;20112;-67
2021/10/03 05:33:49;;;;;;;0.68;0.68;;;14.60;99.90;;;;;;4413684;32;20062;-67
2021/10/03 05:36:15;;;;;;;0.57;0.57;;;14.60;99.90;;;;;;4412652;32;20094;-67
2021/10/03 05:38:41;;;;;;;0.88;0.68;;;14.60;99.90;;;;;;4413840;32;20470;-67
2021/10/03 05:41:06;;;;;;;1.58;1.23;;;14.60;99.90;;;;;;4413894;32;20057;-67
2021/10/03 05:43:34;;;;;;;1.85;1.00;;;14.60;99.90;;;;;;4398927;32;20488;-67
2021/10/03 05:46:00;;;;;;;0.60;0.60;;;14.60;99.90;;;;;;4413243;32;20173;-67
2021/10/03 05:48:26;;;;;;;2.87;1.10;;;14.70;99.90;;;;;;4412374;32;20207;-67
2021/10/03 05:50:51;;;;;;;0.75;0.70;;;14.70;99.90;;;;;;4413083;32;20499;-67
2021/10/03 05:53:17;;;;;;;4.95;1.77;;;14.70;99.90;;;;;;4413735;32;20077;-67
2021/10/03 05:55:42;;;;;;;0.40;0.40;;;14.70;99.90;;;;;;4412968;32;20141;-67
2021/10/03 05:58:08;;;;;;;0.65;0.65;;;14.70;99.90;;;;;;4413421;32;20065;-67
2021/10/03 06:00:33;;;;;;;1.05;0.95;;;14.70;99.90;;;;;;4412056;32;20203;-67
2021/10/03 06:02:59;;;;;;;0.55;0.55;;;14.80;99.90;;;;;;4399067;32;20066;-67
2021/10/03 06:05:24;;;;;;;0.90;0.68;;;14.80;99.90;;;;;;4413431;32;20058;-67
2021/10/03 06:07:51;;;;;;;4.37;1.70;;;14.80;99.90;;;;;;4411579;32;20132;-67
2021/10/03 06:10:19;;;;;;;1.10;0.90;;;14.80;99.90;;;;;;4412896;32;20138;-67
2021/10/03 06:12:44;;;;;;;0.88;0.82;;;14.90;99.90;;;;;;4412328;32;20066;-67
2021/10/03 06:15:10;;;;;;;0.95;0.85;;;14.80;99.90;;;;;;4413264;32;20078;-67
2021/10/03 06:17:37;;;;;;;2.03;0.73;;;14.80;99.90;;;;;;4399163;32;20116;-67
2021/10/03 06:20:04;;;;;;;0.77;0.75;;;14.90;99.90;;;;;;4399109;32;20078;-67
2021/10/03 06:22:30;;;;;;;6.43;1.00;;;14.90;99.90;;;;;;4397478;32;20078;-67
2021/10/03 06:24:55;;;;;;;0.77;0.77;;;14.90;99.90;;;;;;4410259;32;82459;-67
2021/10/03 06:27:21;;;;;;;0.60;0.60;;;15.00;99.90;;;;;;4412578;32;20062;-67
2021/10/03 06:29:46;;;;;;;0.80;0.80;;;15.00;99.90;;;;;;4398243;32;20475;-68
2021/10/03 06:32:12;;;;;;;3.35;1.80;;;15.00;99.90;;;;;;4398373;32;20049;-67
2021/10/03 06:34:38;;;;;;;3.80;0.60;;;15.10;99.90;;;;;;4398554;32;20065;-67
2021/10/03 06:37:03;;;;;;;1.02;0.90;;;15.20;99.90;;;;;;4412751;32;20124;-67
2021/10/03 06:39:29;;;;;;;2.17;0.70;;;15.20;99.90;;;;;;4411857;32;20139;-67
2021/10/03 06:41:54;;;;;;;1.05;0.75;;;15.20;99.90;;;;;;4411505;32;20093;-67
2021/10/03 06:44:20;;;;;;;1.02;0.93;;;15.20;99.90;;;;;;4412639;32;20146;-67
2021/10/03 06:46:45;;;;;;;1.52;0.68;;;15.20;99.90;;;;;;4411612;32;20073;-67
2021/10/03 06:49:11;;;;;;;0.30;0.30;;;15.20;99.90;;;;;;4412706;32;20135;-67
2021/10/03 06:51:37;;;;;;;0.88;0.60;;;15.10;99.90;;;;;;4412270;32;20546;-67
2021/10/03 06:54:03;;;;;;;2.55;0.82;;;15.10;99.90;;;;;;4412534;32;20074;-67
2021/10/03 06:56:29;;;;;;;0.62;0.62;;;15.20;99.90;;;;;;4411424;32;20547;-67
2021/10/03 06:58:55;;;;;;;0.90;0.55;;;15.20;99.90;;;;;;4411858;32;20058;-67
2021/10/03 07:01:20;;;;;;;1.95;1.40;;;15.20;99.90;;;;;;4412803;32;20219;-67
2021/10/03 07:03:47;;;;;;;0.82;0.75;;;15.20;99.90;;;;;;4411013;32;20086;-67
2021/10/03 07:06:12;;;;;;;0.47;0.47;;;15.30;99.90;;;;;;4412387;32;20065;-67
2021/10/03 07:08:39;;;;;;;5.00;1.12;;;15.30;99.90;;;;;;4412903;32;20074;-67
2021/10/03 07:11:04;;;;;;;0.62;0.62;;;15.30;99.90;;;;;;4412870;32;20116;-68
2021/10/03 07:13:29;;;;;;;21.52;1.17;;;15.30;99.90;;;;;;4411986;32;20475;-67
2021/10/03 07:15:55;;;;;;;0.60;0.60;;;15.40;99.90;;;;;;4411957;32;20082;-67
2021/10/03 07:18:21;;;;;;;2.05;0.60;;;15.40;99.90;;;;;;4412425;32;20095;-67
2021/10/03 07:20:47;;;;;;;0.90;0.60;;;15.40;99.90;;;;;;4397580;32;20078;-67
2021/10/03 07:23:12;;;;;;;1.60;1.25;;;15.40;99.90;;;;;;4411329;32;20428;-67
2021/10/03 07:25:38;;;;;;;1.62;1.02;;;15.30;99.90;;;;;;4398741;32;20065;-67
2021/10/03 07:28:04;;;;;;;0.40;0.40;;;15.40;99.90;;;;;;4413146;32;20057;-67
2021/10/03 07:30:29;;;;;;;7.68;2.28;;;15.50;99.90;;;;;;4412560;32;20086;-67
2021/10/03 07:32:55;;;;;;;1.60;0.75;;;15.60;99.90;;;;;;4412419;32;20508;-67
2021/10/03 07:35:20;;;;;;;0.70;0.70;;;15.60;99.90;;;;;;4411611;32;20071;-67
2021/10/03 07:37:46;;;;;;;1.23;0.82;;;15.70;99.90;;;;;;4411462;32;20074;-67
2021/10/03 07:40:12;;;;;;;0.90;0.65;;;15.80;99.90;;;;;;4410952;32;20108;-67
2021/10/03 07:42:38;;;;;;;5.65;1.90;;;15.90;99.90;;;;;;4412090;32;20138;-68
2021/10/03 07:45:05;;;;;;;0.70;0.70;;;15.90;99.90;;;;;;4412727;32;20497;-67
2021/10/03 07:47:31;;;;;;;20.23;2.30;;;15.90;99.90;;;;;;4411498;32;20569;-67
2021/10/03 07:49:56;;;;;;;1.17;1.08;;;15.90;99.90;;;;;;4412051;32;20073;-67
2021/10/03 07:52:22;;;;;;;0.60;0.60;;;15.90;99.90;;;;;;4411203;32;20120;-67
2021/10/03 07:54:47;;;;;;;1.10;0.70;;;15.80;99.90;;;;;;4412164;32;20085;-67
2021/10/03 07:57:13;;;;;;;0.40;0.40;;;15.80;99.90;;;;;;4411955;32;20502;-67
2021/10/03 07:59:39;;;;;;;0.80;0.80;;;15.90;99.90;;;;;;4412551;32;20061;-67
2021/10/03 08:02:05;;;;;;;1.95;1.25;;;15.90;99.90;;;;;;4412477;32;20061;-67
2021/10/03 08:04:30;;;;;;;0.40;0.40;;;16.00;99.90;;;;;;4412459;32;20070;-67
2021/10/03 08:06:56;;;;;;;0.50;0.50;;;16.00;99.90;;;;;;4411502;32;20421;-67
2021/10/03 08:09:22;;;;;;;0.60;0.60;;;16.00;99.90;;;;;;4411940;32;20077;-67
2021/10/03 08:11:47;;;;;;;1.65;1.15;;;16.00;99.90;;;;;;4385840;32;20074;-67
2021/10/03 08:14:13;;;;;;;0.60;0.60;;;16.00;99.90;;;;;;4413319;32;20408;-67
2021/10/03 08:16:39;;;;;;;1.30;1.00;;;16.10;99.90;;;;;;4415293;32;20062;-68
2021/10/03 08:19:04;;;;;;;1.95;0.95;;;16.10;99.90;;;;;;4414285;32;20117;-67
2021/10/03 08:21:30;;;;;;;0.95;0.60;;;16.10;99.90;;;;;;4414608;32;20090;-67
2021/10/03 08:23:56;;;;;;;0.50;0.50;;;16.10;99.90;;;;;;4413756;32;20070;-67
2021/10/03 08:26:22;;;;;;;0.75;0.75;;;16.20;99.90;;;;;;4414805;32;20125;-67
2021/10/03 08:28:47;;;;;;;0.70;0.70;;;16.20;99.90;;;;;;4415014;32;20489;-68
2021/10/03 08:31:13;;;;;;;0.50;0.50;;;16.20;99.90;;;;;;4414951;32;20108;-67
2021/10/03 08:33:38;;;;;;;0.70;0.70;;;16.20;99.90;;;;;;4400224;32;20526;-67
2021/10/03 08:36:05;;;;;;;3.00;0.88;;;16.30;99.90;;;;;;4413523;32;20061;-67
2021/10/03 08:38:31;;;;;;;3.80;0.70;;;16.30;99.90;;;;;;4414706;32;20082;-67
2021/10/03 08:40:57;;;;;;;0.82;0.68;;;16.30;99.90;;;;;;4414539;32;20086;-67
2021/10/03 08:43:23;;;;;;;1.55;0.90;;;16.30;99.90;;;;;;4414533;32;20113;-67
2021/10/03 08:45:49;;;;;;;1.62;0.62;;;16.40;99.90;;;;;;4414880;32;20448;-68
2021/10/03 08:48:16;;;;;;;0.50;0.50;;;16.40;99.90;;;;;;4413386;32;20418;-67
2021/10/03 08:50:44;;;;;;;4.05;0.73;;;16.50;99.90;;;;;;4400191;32;20055;-67
2021/10/03 08:53:09;;;;;;;0.50;0.50;;;16.50;99.90;;;;;;4414335;32;20084;-68
2021/10/03 08:55:35;;;;;;;0.50;0.50;;;16.70;99.90;;;;;;4405769;32;20139;-67
2021/10/03 08:58:01;;;;;;;0.60;0.60;;;16.80;99.90;;;;;;4412981;32;20074;-67
2021/10/03 09:00:27;;;;;;;2.03;0.90;;;16.80;99.90;;;;;;4414130;32;20066;-68
2021/10/03 09:03:04;;;;;;;0.52;0.52;;;16.90;99.90;;;;;;4412570;32;20065;-68
2021/10/03 09:05:34;;;;;;;1.10;1.00;;;17.00;99.90;;;;;;4411619;32;20539;-67
2021/10/03 09:08:21;;;;;;;3.30;0.77;;;17.00;99.90;;;;;;4413922;32;20093;-67
2021/10/03 09:10:58;;;;;;;7.68;1.00;;;17.10;99.90;;;;;;4411739;32;20136;-68
2021/10/03 09:13:34;;;;;;;0.90;0.57;;;17.00;99.90;;;;;;4414148;32;20058;-67
2021/10/03 09:16:17;;;;;;;1.00;0.90;;;17.00;99.90;;;;;;4413195;32;20079;-68
2021/10/03 09:18:46;;;;;;;0.80;0.80;;;17.00;99.90;;;;;;4413883;32;20491;-68
2021/10/03 09:21:31;;;;;;;6.97;1.27;;;17.00;99.90;;;;;;4413192;32;20381;-67
2021/10/03 09:24:03;;;;;;;0.77;0.55;;;17.00;99.90;;;;;;4411992;32;20066;-67
2021/10/03 09:26:30;;;;;;;3.00;0.62;;;17.00;99.90;;;;;;4413293;32;20493;-67
2021/10/03 09:28:56;;;;;;;0.88;0.77;;;17.10;99.90;;;;;;4414683;32;20112;-67
2021/10/03 09:31:21;;;;;;;2.78;1.00;;;17.10;99.90;;;;;;4413305;32;20078;-67
2021/10/03 09:33:56;;;;;;;1.25;0.90;;;17.10;99.90;;;;;;4413742;32;20074;-67
2021/10/03 09:36:25;;;;;;;0.70;0.70;;;17.20;99.90;;;;;;4411773;32;20098;-67
2021/10/03 09:39:04;;;;;;;2.78;0.95;;;17.30;99.90;;;;;;4413197;32;20078;-67
2021/10/03 09:41:32;;;;;;;1.40;0.73;;;17.40;99.90;;;;;;4413960;32;20074;-68
2021/10/03 09:44:00;;;;;;;0.57;0.57;;;17.50;99.90;;;;;;4412306;32;20073;-68
2021/10/03 09:46:33;;;;;;;0.82;0.75;;;17.60;99.90;;;;;;4413144;32;20491;-68
2021/10/03 09:49:00;;;;;;;0.50;0.50;;;17.50;99.90;;;;;;4414482;32;20058;-67
2021/10/03 09:51:25;;;;;;;1.27;0.82;;;17.60;99.90;;;;;;4412554;32;20381;-67
2021/10/03 09:53:51;;;;;;;0.95;0.75;;;17.60;99.90;;;;;;4413338;32;20158;-67
2021/10/03 09:56:17;;;;;;;0.50;0.50;;;17.70;99.90;;;;;;4412463;32;20066;-67
2021/10/03 09:58:46;;;;;;;0.65;0.50;;;17.80;99.90;;;;;;4412972;32;20061;-67
2021/10/03 10:01:13;;;;;;;1.23;0.95;;;17.80;99.90;;;;;;4412976;32;20511;-67
2021/10/03 10:03:38;;;;;;;0.30;0.30;;;18.00;99.90;;;;;;4412898;32;20177;-68
2021/10/03 10:06:04;;;;;;;0.40;0.40;;;18.00;99.90;;;;;;4413614;32;20065;-68
2021/10/03 10:08:32;;;;;;;2.05;0.70;;;18.10;99.90;;;;;;4413278;32;20531;-68
2021/10/03 10:11:04;;;;;;;0.73;0.70;;;18.10;99.90;;;;;;4412644;32;20429;-66
2021/10/03 10:13:33;;;;;;;3.62;1.10;;;18.20;99.90;;;;;;4412779;32;20074;-68
2021/10/03 10:16:27;;;;;;;0.75;0.75;;;18.30;99.90;;;;;;4412184;32;20509;-68
2021/10/03 10:19:33;;;;;;;0.57;0.57;;;18.40;99.90;;;;;;4412448;32;20089;-68
2021/10/03 10:22:19;;;;;;;0.52;0.52;;;18.50;99.90;;;;;;4404048;32;20090;-68
2021/10/03 10:24:50;;;;;;;1.17;0.80;;;18.70;99.90;;;;;;4411647;32;20469;-67
2021/10/03 10:27:21;;;;;;;2.30;1.05;;;18.90;99.90;;;;;;4411898;32;20057;-68
2021/10/03 10:29:51;;;;;;;0.52;0.52;;;19.00;99.90;;;;;;4413136;32;20074;-68
2021/10/03 10:32:17;;;;;;;1.20;1.10;;;19.10;99.90;;;;;;4412233;32;20206;-68
2021/10/03 10:35:11;;;;;;;3.92;0.50;;;19.20;99.90;;;;;;4412815;32;20061;-68
2021/10/03 10:38:00;;;;;;;1.60;0.57;;;19.30;99.90;;;;;;4411126;32;20455;-68
2021/10/03 10:40:28;;;;;;;0.40;0.40;;;19.50;99.90;;;;;;4412544;32;20078;-68
2021/10/03 10:43:12;;;;;;;1.10;0.50;;;19.60;99.90;;;;;;4412622;32;20070;-68
2021/10/03 10:45:43;;;;;;;0.68;0.65;;;19.70;99.90;;;;;;4412928;32;20073;-68
2021/10/03 10:48:11;;;;;;;0.60;0.60;;;19.80;99.90;;;;;;4413378;32;20061;-68
2021/10/03 10:50:39;;;;;;;0.30;0.30;;;19.90;99.90;;;;;;4411507;32;20507;-68
2021/10/03 10:53:26;;;;;;;0.70;0.70;;;19.90;99.90;;;;;;4411168;32;20081;-67
2021/10/03 10:56:25;;;;;;;1.05;0.90;;;20.10;99.90;;;;;;4411116;32;20091;-68
2021/10/03 10:58:52;;;;;;;0.40;0.40;;;20.30;99.90;;;;;;4402526;32;20148;-68
2021/10/03 11:01:36;;;;;;;1.27;0.70;;;20.40;99.90;;;;;;4412049;32;20074;-68
2021/10/03 11:04:04;;;;;;;2.05;0.85;;;20.60;99.90;;;;;;4412265;32;20082;-68
2021/10/03 11:06:32;;;;;;;0.40;0.40;;;20.70;99.90;;;;;;4410131;32;20121;-68
2021/10/03 11:09:02;;;;;;;1.37;0.60;;;20.90;99.90;;;;;;4413519;32;20074;-68
2021/10/03 11:11:30;;;;;;;2.20;1.03;;;20.90;99.90;;;;;;4411782;32;20504;-68
2021/10/03 11:13:59;;;;;;;1.20;0.52;;;21.10;99.90;;;;;;4411242;32;20403;-68
2021/10/03 11:16:27;;;;;;;7.72;2.45;;;21.20;99.90;;;;;;4411755;32;20345;-68
2021/10/03 11:18:55;;;;;;;0.65;0.65;;;21.20;99.90;;;;;;4412968;32;20118;-68
2021/10/03 11:21:26;;;;;;;0.30;0.30;;;21.40;99.90;;;;;;4412287;32;20082;-68
2021/10/03 11:23:54;;;;;;;4.37;0.57;;;21.60;99.90;;;;;;4412197;32;20086;-68
2021/10/03 11:26:21;;;;;;;2.17;1.10;;;21.80;99.90;;;;;;4410562;32;20112;-68
2021/10/03 11:28:52;;;;;;;4.37;1.27;;;21.70;99.90;;;;;;4411322;32;20054;-68
2021/10/03 11:31:40;;;;;;;24.65;0.73;;;21.70;99.90;;;;;;4411378;32;20057;-68
2021/10/03 11:34:07;;;;;;;0.50;0.50;;;21.80;99.90;;;;;;4410607;32;20046;-68
2021/10/03 11:36:33;;;;;;;0.65;0.62;;;22.00;99.90;;;;;;4411654;32;20543;-68
2021/10/03 11:39:00;;;;;;;0.57;0.57;;;22.30;99.90;;;;;;4412353;32;20536;-68
2021/10/03 11:41:26;;;;;;;2.47;0.73;;;22.50;99.90;;;;;;4412271;32;20416;-68
2021/10/03 11:43:53;;;;;;;0.30;0.30;;;22.70;99.90;;;;;;4412800;32;20046;-68
2021/10/03 11:46:18;;;;;;;2.05;0.65;;;23.20;99.90;;;;;;4412678;32;20483;-66
2021/10/03 11:48:50;;;;;;;0.28;0.28;;;23.60;99.90;;;;;;4411396;32;20137;-68
2021/10/03 11:51:15;;;;;;;0.40;0.40;;;24.10;99.90;;;;;;4400717;32;20425;-68
2021/10/03 11:53:47;;;;;;;0.82;0.50;;;24.10;99.90;;;;;;4416360;32;20073;-66
2021/10/03 11:56:14;;;;;;;0.45;0.45;;;23.80;99.90;;;;;;4414926;32;20066;-67
2021/10/03 11:58:43;;;;;;;0.40;0.40;;;23.60;99.90;;;;;;4414191;32;20058;-67
2021/10/03 12:01:09;;;;;;;0.30;0.30;;;23.50;99.90;;;;;;4401683;32;20050;-67
2021/10/03 12:03:52;;;;;;;0.45;0.45;;;23.70;99.90;;;;;;4414951;32;20061;-67
2021/10/03 12:06:19;;;;;;;1.27;0.98;;;23.70;99.90;;;;;;4400372;32;20078;-67
2021/10/03 12:08:46;;;;;;;0.35;0.35;;;23.90;99.90;;;;;;4414602;32;20073;-67
2021/10/03 12:11:13;;;;;;;1.08;0.35;;;24.30;99.90;;;;;;4413624;32;20116;-67
2021/10/03 12:13:39;;;;;;;0.57;0.37;;;24.40;99.90;;;;;;4415311;32;20116;-67
2021/10/03 12:16:23;;;;;;;0.37;0.37;;;24.50;99.90;;;;;;4401329;32;20506;-67
2021/10/03 12:18:59;;;;;;;0.40;0.40;;;24.40;99.90;;;;;;4414260;32;20071;-67
2021/10/03 12:21:27;;;;;;;0.93;0.70;;;24.70;99.90;;;;;;4413397;32;20057;-67
2021/10/03 12:23:58;;;;;;;1.05;0.80;;;25.50;99.60;;;;;;4413667;32;20499;-67
2021/10/03 12:26:46;;;;;;;2.62;1.33;;;25.90;98.60;;;;;;4413220;32;20069;-67
2021/10/03 12:29:18;;;;;;;0.25;0.25;;;26.30;98.40;;;;;;4402399;32;20117;-67
2021/10/03 12:31:48;;;;;;;2.25;0.95;;;26.80;96.60;;;;;;4413398;32;20594;-67
2021/10/03 12:34:16;;;;;;;2.53;1.00;;;27.10;96.20;;;;;;4413933;32;20409;-67
2021/10/03 12:36:59;;;;;;;0.40;0.40;;;27.40;95.60;;;;;;4412800;32;20539;-67
2021/10/03 12:39:31;;;;;;;0.52;0.17;;;27.90;94.60;;;;;;4402089;32;20062;-67
2021/10/03 12:42:07;;;;;;;2.62;0.47;;;28.10;94.30;;;;;;4414561;32;20102;-67
2021/10/03 12:44:34;;;;;;;2.15;0.70;;;27.40;94.80;;;;;;4413939;32;20086;-67
2021/10/03 12:47:01;;;;;;;0.37;0.37;;;26.70;95.10;;;;;;4388580;32;20061;-67
2021/10/03 12:49:26;;;;;;;10.25;0.82;;;26.30;95.90;;;;;;4413190;32;20082;-67